createdAt,value
2023-01-30T00:01:06.672Z,99250.00
2023-01-30T00:03:34.809Z,99256.00
2023-01-30T00:06:02.786Z,99263.00
2023-01-30T00:08:31.320Z,99066.00
2023-01-30T00:11:04.853Z,99244.00
2023-01-30T00:13:32.176Z,99163.00
2023-01-30T00:15:59.489Z,99221.00
2023-01-30T00:18:28.360Z,99228.00
2023-01-30T00:21:02.893Z,99231.00
2023-01-30T00:23:35.148Z,99228.00
2023-01-30T00:26:04.924Z,99221.00
2023-01-30T00:28:33.009Z,99206.00
2023-01-30T00:31:00.663Z,99206.00
2023-01-30T00:33:28.906Z,99217.00
2023-01-30T00:35:59.049Z,99205.00
2023-01-30T00:38:26.699Z,99193.00
2023-01-30T00:40:54.375Z,99175.00
2023-01-30T00:43:41.173Z,99145.00
2023-01-30T00:46:48.424Z,99167.00
2023-01-30T00:49:16.874Z,99160.00
2023-01-30T00:51:45.008Z,99150.00
2023-01-30T00:54:13.075Z,99151.00
2023-01-30T00:56:41.486Z,99130.00
2023-01-30T00:59:09.032Z,99122.00
2023-01-30T01:01:37.663Z,99102.00
2023-01-30T01:04:07.401Z,99116.00
2023-01-30T01:06:34.683Z,99099.00
2023-01-30T01:09:01.743Z,99119.00
2023-01-30T01:11:29.852Z,99098.00
2023-01-30T01:14:00.050Z,99078.00
2023-01-30T01:16:30.253Z,99111.00
2023-01-30T01:18:58.571Z,99079.00
2023-01-30T01:21:25.986Z,99065.00
2023-01-30T01:23:57.916Z,99068.00
2023-01-30T01:26:26.786Z,99052.00
2023-01-30T01:28:58.383Z,99043.00
2023-01-30T01:31:26.068Z,99036.00
2023-01-30T01:33:53.520Z,99016.00
2023-01-30T01:36:49.832Z,98999.00
2023-01-30T01:39:09.022Z,99004.00
2023-01-30T01:41:36.990Z,98960.00
2023-01-30T01:44:11.128Z,98989.00
2023-01-30T01:47:00.377Z,98988.00
2023-01-30T01:49:37.393Z,98981.00
2023-01-30T01:52:10.515Z,98969.00
2023-01-30T01:54:54.627Z,98964.00
2023-01-30T01:57:34.028Z,98968.00
2023-01-30T02:00:11.826Z,98962.00
2023-01-30T02:02:55.048Z,98834.00
2023-01-30T02:05:22.850Z,98932.00
2023-01-30T02:08:09.453Z,98924.00
2023-01-30T02:11:23.624Z,98852.00
2023-01-30T02:13:51.226Z,98935.00
2023-01-30T02:16:19.922Z,98917.00
2023-01-30T02:18:49.006Z,98909.00
2023-01-30T02:21:56.251Z,98880.00
2023-01-30T02:25:00.522Z,98863.00
2023-01-30T02:27:33.525Z,98855.00
2023-01-30T02:30:29.896Z,98849.00
2023-01-30T02:33:19.017Z,98829.00
2023-01-30T02:36:33.081Z,98828.00
2023-01-30T02:39:32.485Z,98846.00
2023-01-30T02:42:14.837Z,98846.00
2023-01-30T02:44:47.972Z,98835.00
2023-01-30T02:48:02.443Z,98835.00
2023-01-30T02:50:55.193Z,98842.00
2023-01-30T02:53:22.926Z,98832.00
2023-01-30T02:55:50.809Z,98837.00
2023-01-30T02:58:23.028Z,98811.00
2023-01-30T03:01:04.156Z,98808.00
2023-01-30T03:03:52.648Z,98839.00
2023-01-30T03:07:02.639Z,98828.00
2023-01-30T03:10:06.975Z,98826.00
2023-01-30T03:13:02.830Z,98809.00
2023-01-30T03:15:41.431Z,98820.00
2023-01-30T03:18:10.328Z,98774.00
2023-01-30T03:20:42.428Z,98799.00
2023-01-30T03:23:10.174Z,98791.00
2023-01-30T03:25:41.447Z,98777.00
2023-01-30T03:28:11.031Z,98776.00
2023-01-30T03:30:38.199Z,98785.00
2023-01-30T03:33:05.930Z,98774.00
2023-01-30T03:35:33.258Z,98765.00
2023-01-30T03:38:00.537Z,98727.00
2023-01-30T03:40:28.032Z,98742.00
2023-01-30T03:42:55.248Z,98730.00
2023-01-30T03:45:23.555Z,98733.00
2023-01-30T03:47:53.613Z,98727.00
2023-01-30T03:50:21.753Z,98731.00
2023-01-30T03:52:48.886Z,98729.00
2023-01-30T03:55:16.525Z,98710.00
2023-01-30T03:57:45.465Z,98702.00
2023-01-30T04:00:14.752Z,98700.00
2023-01-30T04:02:41.822Z,98691.00
2023-01-30T04:05:09.228Z,98587.00
2023-01-30T04:07:36.862Z,98681.00
2023-01-30T04:10:04.685Z,98678.00
2023-01-30T04:12:32.504Z,98682.00
2023-01-30T04:15:00.203Z,98678.00
2023-01-30T04:17:30.405Z,98683.00
2023-01-30T04:19:57.755Z,98655.00
2023-01-30T04:22:24.900Z,98671.00
2023-01-30T04:24:52.964Z,98589.00
2023-01-30T04:27:21.071Z,98605.00
2023-01-30T04:29:48.104Z,98646.00
2023-01-30T04:32:15.412Z,98638.00
2023-01-30T04:34:44.023Z,98631.00
2023-01-30T04:37:12.990Z,98621.00
2023-01-30T04:39:41.119Z,98627.00
2023-01-30T04:42:08.463Z,98609.00
2023-01-30T04:44:35.967Z,98620.00
2023-01-30T04:47:06.192Z,98601.00
2023-01-30T04:49:33.480Z,98587.00
2023-01-30T04:52:03.014Z,98605.00
2023-01-30T04:54:31.410Z,98584.00
2023-01-30T04:56:59.391Z,98589.00
2023-01-30T04:59:28.082Z,98562.00
2023-01-30T05:01:57.587Z,98563.00
2023-01-30T05:04:25.350Z,98554.00
2023-01-30T05:06:52.874Z,98555.00
2023-01-30T05:09:19.862Z,98549.00
2023-01-30T05:11:49.558Z,98556.00
2023-01-30T05:14:16.778Z,98542.00
2023-01-30T05:16:43.933Z,98519.00
2023-01-30T05:19:14.071Z,98516.00
2023-01-30T05:21:41.216Z,98510.00
2023-01-30T05:24:08.624Z,98480.00
2023-01-30T05:26:36.573Z,98512.00
2023-01-30T05:29:03.892Z,98487.00
2023-01-30T05:31:31.382Z,98419.00
2023-01-30T05:33:58.728Z,98460.00
2023-01-30T05:36:25.789Z,98472.00
2023-01-30T05:38:52.997Z,98475.00
2023-01-30T05:41:20.247Z,98477.00
2023-01-30T05:43:51.467Z,98403.00
2023-01-30T05:46:19.166Z,98462.00
2023-01-30T05:48:46.951Z,98449.00
2023-01-30T05:51:20.504Z,98446.00
2023-01-30T05:53:47.951Z,98454.00
2023-01-30T05:56:16.540Z,98441.00
2023-01-30T05:58:49.824Z,98430.00
2023-01-30T06:01:17.538Z,98434.00
2023-01-30T06:03:46.209Z,98425.00
2023-01-30T06:06:13.903Z,98415.00
2023-01-30T06:08:41.946Z,98426.00
2023-01-30T06:11:16.655Z,98403.00
2023-01-30T06:13:45.389Z,98415.00
2023-01-30T06:16:16.342Z,98419.00
2023-01-30T06:18:44.352Z,98392.00
2023-01-30T06:21:12.342Z,98414.00
2023-01-30T06:23:39.561Z,98412.00
2023-01-30T06:26:09.095Z,98412.00
2023-01-30T06:28:37.067Z,98416.00
2023-01-30T06:31:08.720Z,98418.00
2023-01-30T06:33:36.372Z,98404.00
2023-01-30T06:36:04.372Z,98395.00
2023-01-30T06:38:31.833Z,98394.00
2023-01-30T06:40:59.126Z,98400.00
2023-01-30T06:43:26.754Z,98397.00
2023-01-30T06:45:54.002Z,98385.00
2023-01-30T06:48:22.660Z,98390.00
2023-01-30T06:50:49.815Z,98379.00
2023-01-30T06:53:17.693Z,98391.00
2023-01-30T06:55:45.126Z,98389.00
2023-01-30T06:58:14.757Z,98380.00
2023-01-30T07:00:43.978Z,98385.00
2023-01-30T07:03:13.899Z,98388.00
2023-01-30T07:05:42.960Z,98395.00
2023-01-30T07:08:10.888Z,98387.00
2023-01-30T07:10:40.439Z,98387.00
2023-01-30T07:13:08.481Z,98366.00
2023-01-30T07:15:36.311Z,98375.00
2023-01-30T07:18:06.384Z,98377.00
2023-01-30T07:20:33.938Z,98375.00
2023-01-30T07:23:01.203Z,98373.00
2023-01-30T07:25:30.107Z,98366.00
2023-01-30T07:28:02.420Z,98354.00
2023-01-30T07:30:33.447Z,98358.00
2023-01-30T07:33:02.707Z,98366.00
2023-01-30T07:35:35.289Z,98365.00
2023-01-30T07:38:03.308Z,98365.00
2023-01-30T07:40:30.918Z,98361.00
2023-01-30T07:43:07.019Z,98356.00
2023-01-30T07:45:41.821Z,98362.00
2023-01-30T07:48:13.492Z,98356.00
2023-01-30T07:50:42.109Z,98353.00
2023-01-30T07:53:14.667Z,98340.00
2023-01-30T07:55:43.070Z,98346.00
2023-01-30T07:58:17.731Z,98363.00
2023-01-30T08:00:47.530Z,98357.00
2023-01-30T08:03:16.961Z,98347.00
2023-01-30T08:05:47.345Z,98354.00
2023-01-30T08:08:14.877Z,98355.00
2023-01-30T08:10:43.439Z,98357.00
2023-01-30T08:13:10.894Z,98361.00
2023-01-30T08:15:39.672Z,98354.00
2023-01-30T08:18:08.889Z,98293.00
2023-01-30T08:20:36.979Z,98348.00
2023-01-30T08:23:04.825Z,98355.00
2023-01-30T08:25:32.906Z,98341.00
2023-01-30T08:28:01.908Z,98344.00
2023-01-30T08:30:30.648Z,98338.00
2023-01-30T08:32:59.904Z,98338.00
2023-01-30T08:35:28.960Z,98340.00
2023-01-30T08:37:56.351Z,98337.00
2023-01-30T08:40:23.667Z,98345.00
2023-01-30T08:42:51.372Z,98330.00
2023-01-30T08:45:18.856Z,98340.00
2023-01-30T08:47:46.068Z,98322.00
2023-01-30T08:50:13.727Z,98337.00
2023-01-30T08:52:41.117Z,98351.00
2023-01-30T08:55:10.163Z,98343.00
2023-01-30T08:57:37.211Z,98326.00
2023-01-30T09:00:05.681Z,98274.00
2023-01-30T09:02:33.459Z,98329.00
2023-01-30T09:05:01.253Z,98344.00
2023-01-30T09:07:29.580Z,98343.00
2023-01-30T09:09:56.866Z,98335.00
2023-01-30T09:12:24.742Z,98321.00
2023-01-30T09:14:55.886Z,98334.00
2023-01-30T09:17:23.141Z,98328.00
2023-01-30T09:19:50.581Z,98239.00
2023-01-30T09:22:18.663Z,98296.00
2023-01-30T09:24:45.864Z,98299.00
2023-01-30T09:27:13.689Z,98308.00
2023-01-30T09:29:43.617Z,98285.00
2023-01-30T09:32:14.989Z,98307.00
2023-01-30T09:34:42.993Z,98314.00
2023-01-30T09:37:11.192Z,98300.00
2023-01-30T09:39:38.294Z,98297.00
2023-01-30T09:42:06.351Z,98302.00
2023-01-30T09:45:14.413Z,98286.00
2023-01-30T09:47:52.201Z,98275.00
2023-01-30T09:50:58.658Z,98288.00
2023-01-30T09:53:53.622Z,98287.00
2023-01-30T09:56:22.678Z,98281.00
2023-01-30T09:58:57.604Z,98295.00
2023-01-30T10:01:41.984Z,98282.00
2023-01-30T10:04:34.861Z,98283.00
2023-01-30T10:07:26.769Z,98272.00
2023-01-30T10:10:40.976Z,98259.00
2023-01-30T10:13:36.546Z,98261.00
2023-01-30T10:16:25.273Z,98259.00
2023-01-30T10:19:38.162Z,98238.00
2023-01-30T10:22:38.954Z,98246.00
2023-01-30T10:25:41.430Z,98249.00
2023-01-30T10:29:14.111Z,98251.00
2023-01-30T10:31:57.810Z,98247.00
2023-01-30T10:34:33.411Z,98245.00
2023-01-30T10:37:13.880Z,98238.00
2023-01-30T10:40:19.566Z,98235.00
2023-01-30T10:43:09.306Z,98231.00
2023-01-30T10:45:44.956Z,98243.00
2023-01-30T10:48:45.499Z,98236.00
2023-01-30T10:52:03.381Z,98241.00
2023-01-30T10:54:41.824Z,98251.00
2023-01-30T10:57:44.781Z,98257.00
2023-01-30T11:00:54.375Z,98254.00
2023-01-30T11:03:54.228Z,98251.00
2023-01-30T11:06:25.888Z,98190.00
2023-01-30T11:08:55.951Z,98226.00
2023-01-30T11:12:00.373Z,98238.00
2023-01-30T11:14:27.539Z,98231.00
2023-01-30T11:16:56.705Z,98231.00
2023-01-30T11:19:34.903Z,98228.00
2023-01-30T11:22:05.524Z,98218.00
2023-01-30T11:24:45.025Z,98228.00
2023-01-30T11:27:51.743Z,98228.00
2023-01-30T11:30:26.837Z,98220.00
2023-01-30T11:33:12.308Z,98237.00
2023-01-30T11:35:54.386Z,98133.00
2023-01-30T11:38:59.315Z,98234.00
2023-01-30T11:41:27.279Z,98201.00
2023-01-30T11:44:05.585Z,98217.00
2023-01-30T11:46:39.062Z,98167.00
2023-01-30T11:49:46.011Z,98202.00
2023-01-30T11:52:04.981Z,98193.00
2023-01-30T11:54:36.369Z,98173.00
2023-01-30T11:57:10.221Z,98186.00
2023-01-30T11:59:45.266Z,98188.00
2023-01-30T12:02:21.055Z,98184.00
2023-01-30T12:04:54.083Z,98177.00
2023-01-30T12:07:30.801Z,98187.00
2023-01-30T12:09:59.835Z,98183.00
2023-01-30T12:12:52.761Z,98176.00
2023-01-30T12:15:29.449Z,98157.00
2023-01-30T12:18:18.228Z,98162.00
2023-01-30T12:21:13.841Z,98172.00
2023-01-30T12:24:12.069Z,98170.00
2023-01-30T12:26:52.981Z,98171.00
2023-01-30T12:29:40.969Z,98160.00
2023-01-30T12:32:17.670Z,98157.00
2023-01-30T12:34:47.908Z,98152.00
2023-01-30T12:37:56.761Z,98147.00
2023-01-30T12:40:45.978Z,98140.00
2023-01-30T12:43:43.238Z,98128.00
2023-01-30T12:46:50.423Z,98131.00
2023-01-30T12:49:49.497Z,98120.00
2023-01-30T12:52:41.745Z,98128.00
2023-01-30T12:55:37.067Z,98133.00
2023-01-30T12:58:34.173Z,98121.00
2023-01-30T13:01:29.609Z,98134.00
2023-01-30T13:04:22.567Z,98141.00
2023-01-30T13:07:07.040Z,98126.00
2023-01-30T13:10:22.071Z,98144.00
2023-01-30T13:13:14.641Z,98143.00
2023-01-30T13:16:07.665Z,98133.00
2023-01-30T13:19:15.995Z,98129.00
2023-01-30T13:22:04.495Z,98145.00
2023-01-30T13:24:59.658Z,98134.00
2023-01-30T13:27:30.134Z,98137.00
2023-01-30T13:30:02.101Z,98133.00
2023-01-30T13:32:48.291Z,98136.00
2023-01-30T13:35:43.780Z,98130.00
2023-01-30T13:38:21.038Z,98139.00
2023-01-30T13:40:54.065Z,98110.00
2023-01-30T13:43:36.877Z,98136.00
2023-01-30T13:46:11.564Z,98143.00
2023-01-30T13:49:03.756Z,98185.00
2023-01-30T13:51:46.691Z,98144.00
2023-01-30T13:54:43.364Z,98144.00
2023-01-30T13:57:38.263Z,98130.00
2023-01-30T14:00:21.785Z,98141.00
2023-01-30T14:03:04.068Z,98148.00
2023-01-30T14:05:59.467Z,98142.00
2023-01-30T14:08:46.733Z,98139.00
2023-01-30T14:11:48.192Z,98150.00
2023-01-30T14:14:36.895Z,98144.00
2023-01-30T14:17:17.373Z,98147.00
2023-01-30T14:20:21.143Z,98169.00
2023-01-30T14:22:57.309Z,98136.00
2023-01-30T14:25:30.237Z,98142.00
2023-01-30T14:28:00.478Z,98132.00
2023-01-30T14:30:45.692Z,98156.00
2023-01-30T14:33:22.487Z,98161.00
2023-01-30T14:35:58.734Z,98165.00
2023-01-30T14:38:47.627Z,98155.00
2023-01-30T14:41:32.873Z,98151.00
2023-01-30T14:44:00.006Z,98145.00
2023-01-30T14:46:30.015Z,98142.00
2023-01-30T14:49:21.364Z,98152.00
2023-01-30T14:51:49.976Z,97932.00
2023-01-30T14:54:16.922Z,98147.00
2023-01-30T14:56:59.260Z,98148.00
2023-01-30T14:59:35.857Z,98139.00
2023-01-30T15:02:15.207Z,98140.00
2023-01-30T15:05:14.520Z,98154.00
2023-01-30T15:08:28.905Z,98146.00
2023-01-30T15:11:16.004Z,98158.00
2023-01-30T15:14:05.076Z,98156.00
2023-01-30T15:17:13.000Z,98151.00
2023-01-30T15:20:18.693Z,98155.00
2023-01-30T15:23:13.038Z,98151.00
2023-01-30T15:26:37.609Z,98167.00
2023-01-30T15:29:46.051Z,98176.00
2023-01-30T15:32:23.118Z,98185.00
2023-01-30T15:35:00.839Z,98199.00
2023-01-30T15:37:53.888Z,98191.00
2023-01-30T15:40:29.932Z,98203.00
2023-01-30T15:43:54.141Z,98195.00
2023-01-30T15:46:32.482Z,98204.00
2023-01-30T15:49:32.164Z,98198.00
2023-01-30T15:52:07.104Z,98209.00
2023-01-30T15:54:34.254Z,98207.00
2023-01-30T15:57:01.999Z,98215.00
2023-01-30T15:59:35.033Z,98221.00
2023-01-30T16:02:28.251Z,98230.00
2023-01-30T16:05:07.112Z,98218.00
2023-01-30T16:07:35.071Z,98222.00
2023-01-30T16:10:09.275Z,98211.00
2023-01-30T16:12:40.892Z,98211.00
2023-01-30T16:15:31.208Z,98198.00
2023-01-30T16:18:41.779Z,98211.00
2023-01-30T16:21:19.311Z,98228.00
2023-01-30T16:24:15.666Z,98234.00
2023-01-30T16:26:48.821Z,98235.00
2023-01-30T16:29:24.200Z,98224.00
2023-01-30T16:31:54.549Z,98233.00
2023-01-30T16:34:35.780Z,98241.00
2023-01-30T16:37:16.862Z,98238.00
2023-01-30T16:39:46.529Z,98232.00
2023-01-30T16:42:30.006Z,98248.00
2023-01-30T16:45:33.309Z,98255.00
2023-01-30T16:48:30.963Z,98256.00
2023-01-30T16:51:10.781Z,98249.00
2023-01-30T16:53:48.286Z,98032.00
2023-01-30T16:56:17.310Z,98241.00
2023-01-30T16:58:55.636Z,98244.00
2023-01-30T17:01:33.697Z,98241.00
2023-01-30T17:04:05.269Z,98270.00
2023-01-30T17:06:43.305Z,98265.00
2023-01-30T17:09:47.175Z,98263.00
2023-01-30T17:12:37.489Z,98179.00
2023-01-30T17:15:13.984Z,98247.00
2023-01-30T17:17:45.110Z,98220.00
2023-01-30T17:20:16.500Z,98240.00
2023-01-30T17:22:48.371Z,98247.00
2023-01-30T17:25:32.982Z,98244.00
2023-01-30T17:28:00.244Z,98256.00
2023-01-30T17:30:39.182Z,98235.00
2023-01-30T17:33:07.218Z,98253.00
2023-01-30T17:35:34.650Z,98252.00
2023-01-30T17:38:05.577Z,98251.00
2023-01-30T17:40:38.443Z,98264.00
2023-01-30T17:43:06.964Z,98265.00
2023-01-30T17:45:45.661Z,98260.00
2023-01-30T17:48:14.497Z,98252.00
2023-01-30T17:50:42.254Z,98264.00
2023-01-30T17:53:09.487Z,98271.00
2023-01-30T17:55:37.191Z,98279.00
2023-01-30T17:58:04.692Z,98288.00
2023-01-30T18:00:31.806Z,98284.00
2023-01-30T18:02:59.320Z,98289.00
2023-01-30T18:05:36.979Z,98293.00
2023-01-30T18:08:04.421Z,98284.00
2023-01-30T18:10:31.520Z,98287.00
2023-01-30T18:12:58.995Z,98290.00
2023-01-30T18:15:28.037Z,98255.00
2023-01-30T18:17:56.653Z,98298.00
2023-01-30T18:20:24.482Z,98294.00
2023-01-30T18:22:51.662Z,98306.00
2023-01-30T18:25:19.315Z,98304.00
2023-01-30T18:27:48.152Z,98315.00
2023-01-30T18:30:17.930Z,98304.00
2023-01-30T18:32:53.358Z,98326.00
2023-01-30T18:35:25.787Z,98340.00
2023-01-30T18:38:02.392Z,98335.00
2023-01-30T18:40:46.188Z,98336.00
2023-01-30T18:43:14.848Z,98341.00
2023-01-30T18:45:43.451Z,98339.00
2023-01-30T18:48:11.912Z,98337.00
2023-01-30T18:50:40.478Z,98335.00
2023-01-30T18:53:10.058Z,98332.00
2023-01-30T18:55:41.578Z,98336.00
2023-01-30T18:58:08.701Z,98109.00
2023-01-30T19:00:35.809Z,98342.00
2023-01-30T19:03:04.123Z,98342.00
2023-01-30T19:05:32.446Z,98344.00
2023-01-30T19:07:59.639Z,98331.00
2023-01-30T19:10:26.994Z,98348.00
2023-01-30T19:13:13.376Z,98360.00
2023-01-30T19:15:40.851Z,98354.00
2023-01-30T19:18:09.109Z,98364.00
2023-01-30T19:20:37.950Z,98386.00
2023-01-30T19:23:05.372Z,98390.00
2023-01-30T19:25:32.526Z,98342.00
2023-01-30T19:27:59.742Z,98387.00
2023-01-30T19:30:27.253Z,98365.00
2023-01-30T19:32:58.640Z,98390.00
2023-01-30T19:35:25.998Z,98406.00
2023-01-30T19:37:55.180Z,98411.00
2023-01-30T19:40:24.842Z,98421.00
2023-01-30T19:42:54.735Z,98418.00
2023-01-30T19:45:27.801Z,98428.00
2023-01-30T19:47:55.314Z,98439.00
2023-01-30T19:50:23.145Z,98435.00
2023-01-30T19:52:54.347Z,98435.00
2023-01-30T19:55:21.797Z,98443.00
2023-01-30T19:57:49.291Z,98446.00
2023-01-30T20:00:16.897Z,98454.00
2023-01-30T20:02:44.311Z,98464.00
2023-01-30T20:05:11.891Z,98472.00
2023-01-30T20:07:38.938Z,98476.00
2023-01-30T20:10:07.110Z,98461.00
2023-01-30T20:12:35.817Z,98462.00
2023-01-30T20:15:04.840Z,98453.00
2023-01-30T20:17:35.347Z,98485.00
2023-01-30T20:20:03.406Z,98496.00
2023-01-30T20:22:30.783Z,98491.00
2023-01-30T20:24:57.865Z,98502.00
2023-01-30T20:27:25.240Z,98489.00
2023-01-30T20:29:53.260Z,98506.00
2023-01-30T20:32:21.343Z,98502.00
2023-01-30T20:34:48.706Z,98504.00
2023-01-30T20:37:15.970Z,98513.00
2023-01-30T20:39:43.738Z,98501.00
2023-01-30T20:42:10.772Z,98524.00
2023-01-30T20:44:38.421Z,98515.00
2023-01-30T20:47:05.964Z,98524.00
2023-01-30T20:49:33.143Z,98487.00
2023-01-30T20:52:00.244Z,98539.00
2023-01-30T20:54:27.993Z,98480.00
2023-01-30T20:56:55.654Z,98553.00
2023-01-30T20:59:24.817Z,98554.00
2023-01-30T21:01:53.660Z,98551.00
2023-01-30T21:04:24.467Z,98557.00
2023-01-30T21:06:52.830Z,98563.00
2023-01-30T21:09:23.960Z,98570.00
2023-01-30T21:11:54.341Z,98573.00
2023-01-30T21:14:22.624Z,98584.00
2023-01-30T21:16:56.772Z,98576.00
2023-01-30T21:19:24.065Z,98571.00
2023-01-30T21:21:55.076Z,98591.00
2023-01-30T21:24:27.381Z,98602.00
2023-01-30T21:26:55.902Z,98598.00
2023-01-30T21:29:26.790Z,98600.00
2023-01-30T21:31:55.944Z,98624.00
2023-01-30T21:34:24.170Z,98546.00
2023-01-30T21:37:10.134Z,98619.00
2023-01-30T21:39:56.057Z,98622.00
2023-01-30T21:43:02.147Z,98617.00
2023-01-30T21:45:29.518Z,98635.00
2023-01-30T21:47:56.819Z,98633.00
2023-01-30T21:50:26.920Z,98632.00
2023-01-30T21:52:54.875Z,98638.00
2023-01-30T21:55:23.018Z,98642.00
2023-01-30T21:57:50.400Z,98645.00
2023-01-30T22:00:18.051Z,98651.00
2023-01-30T22:02:45.371Z,98659.00
2023-01-30T22:05:12.626Z,98661.00
2023-01-30T22:07:39.980Z,98672.00
2023-01-30T22:10:10.611Z,98672.00
2023-01-30T22:12:40.320Z,98676.00
2023-01-30T22:15:10.120Z,98694.00
2023-01-30T22:17:37.462Z,98698.00
2023-01-30T22:20:05.650Z,98706.00
2023-01-30T22:22:33.146Z,98695.00
2023-01-30T22:25:00.770Z,98706.00
2023-01-30T22:27:28.228Z,98721.00
2023-01-30T22:29:55.515Z,98725.00
2023-01-30T22:32:23.506Z,98724.00
2023-01-30T22:34:51.108Z,98734.00
2023-01-30T22:37:18.357Z,98729.00
2023-01-30T22:39:45.535Z,98741.00
2023-01-30T22:42:13.426Z,98668.00
2023-01-30T22:44:40.563Z,98740.00
2023-01-30T22:47:07.740Z,98743.00
2023-01-30T22:49:35.010Z,98749.00
2023-01-30T22:52:02.200Z,98752.00
2023-01-30T22:54:29.536Z,98753.00
2023-01-30T22:56:56.581Z,98755.00
2023-01-30T22:59:23.758Z,98734.00
2023-01-30T23:01:51.862Z,98778.00
2023-01-30T23:04:23.208Z,98771.00
2023-01-30T23:06:52.607Z,98777.00
2023-01-30T23:09:23.614Z,98774.00
2023-01-30T23:12:16.349Z,98749.00
2023-01-30T23:14:45.227Z,98774.00
2023-01-30T23:17:32.243Z,98771.00
2023-01-30T23:19:59.563Z,98788.00
2023-01-30T23:22:28.720Z,98786.00
2023-01-30T23:24:56.029Z,98784.00
2023-01-30T23:27:25.118Z,98787.00
2023-01-30T23:29:52.675Z,98770.00
2023-01-30T23:32:20.338Z,98791.00
2023-01-30T23:34:48.607Z,98780.00
2023-01-30T23:37:17.350Z,98784.00
2023-01-30T23:39:45.881Z,98781.00
2023-01-30T23:42:13.145Z,98783.00
2023-01-30T23:44:40.276Z,98800.00
2023-01-30T23:47:07.320Z,98792.00
2023-01-30T23:49:35.344Z,98795.00
2023-01-30T23:52:03.275Z,98803.00
2023-01-30T23:54:30.324Z,98802.00
2023-01-30T23:56:57.644Z,98815.00
2023-01-30T23:59:25.027Z,98812.00
